SKCG

Details ICAO SKCG (CTG)
Name Rafael Nunez Intl
Region Colombia
Timezone America/Bogota (UTC-5.0)
Plans Departing 1289
Arriving 1281
Stats Elevation 1 ft / 0 m (AMSL)
Location 10.441700° -75.512900°
Runways 1
Magnetic Variation 8.020° W
Sunrise 2024-03-04 11:16:19 UTC / 2024-03-04 06:16:19 Local
Sunset 2024-03-04 23:13:56 UTC / 2024-03-04 18:13:56 Local
Advertisement - Login to hide

Runways

ID Width Length Bearing (true/mag) Surface Threshold Overrun Markings Lighting
01 148 ft / 45 m 7,849 ft / 2,392 m 2.32° / 10.34° ASPHALT 0 ft / 0 m 0 ft / 0 m PREC-APP EDGE THRESHOLD REIL-OMNI
19 148 ft / 45 m 7,849 ft / 2,392 m 182.32° / 190.34° ASPHALT 0 ft / 0 m 0 ft / 0 m PREC-APP EDGE THRESHOLD REIL-OMNI

Map

Weather


0- 5 10 15 20 25 30 35+ Temperature / °C

Clouds and Precipitation
Forecast for 2024-03-04 06:00 UTC. Updated 4 hours ago

Ground ~20,000 ft ~40,000 ft Winds

METAR

SKCG 040700Z 03006KT 350V070 CAVOK 26/23 Q1009

TAF

TAF SKCG 040430Z 0406/0506 01013KT 9999 FEW017 BECMG 0409/0411 12006KT BECMG 0416/0418 35013KT TX33/0418Z TN25/0411Z

Frequencies

Approach 119.10 MHz Barranquilla Approach
Tower 118.30 MHz Rafael Nunez Tower
Warning: Do not use this data for real-world aviation or navigation. No guarantee of current accuracy is given.